Augusta, Kansas
Current Conditions -  °F | °C
As of 10:35 AM on Friday 19 Dec 2014 (Local Time) from KEQA Reporting Station
Overcast Overcast  
Wind Chill: 32°   Ceiling: 200
Heat Index: 32°   Visibility: 7mi
Dew Point: 32°   Wind: 0mph
Humidity: 100%   Direction: NA
Pressure: 30.26"   Gusts: NA
Location:  37.68°N, 96.98°W
Report Text: KEQA 191635Z AUTO 00000KT 7SM OVC002 00/00 A3026 RMK AO2
Loading
Personal Weather Stations






























Interactive Weather Map New forecast layout! Learn more

10-Day Weather Forecast

Advertisements
Track Severe Weather on mobile